sensor_id;sensor_type;location;lat;lon;timestamp;P1;durP1;ratioP1;P2;durP2;ratioP2
12412;SDS011;13877;18.896;-99.222;2022-09-21T00:01:17;8.68;;;5.60;;
12412;SDS011;13877;18.896;-99.222;2022-09-21T00:03:53;12.05;;;5.53;;
12412;SDS011;13877;18.896;-99.222;2022-09-21T00:06:25;14.27;;;5.80;;
12412;SDS011;13877;18.896;-99.222;2022-09-21T00:08:53;15.57;;;5.63;;
12412;SDS011;13877;18.896;-99.222;2022-09-21T00:11:22;12.13;;;4.95;;
12412;SDS011;13877;18.896;-99.222;2022-09-21T00:13:53;11.55;;;4.97;;
12412;SDS011;13877;18.896;-99.222;2022-09-21T00:16:22;9.70;;;5.38;;
12412;SDS011;13877;18.896;-99.222;2022-09-21T00:18:49;12.93;;;4.82;;
12412;SDS011;13877;18.896;-99.222;2022-09-21T00:21:16;15.57;;;5.40;;
12412;SDS011;13877;18.896;-99.222;2022-09-21T00:23:44;11.98;;;5.80;;
12412;SDS011;13877;18.896;-99.222;2022-09-21T00:28:59;10.40;;;6.32;;
12412;SDS011;13877;18.896;-99.222;2022-09-21T00:31:27;9.77;;;5.45;;
12412;SDS011;13877;18.896;-99.222;2022-09-21T00:33:56;10.82;;;5.35;;
12412;SDS011;13877;18.896;-99.222;2022-09-21T00:36:25;12.50;;;5.50;;
12412;SDS011;13877;18.896;-99.222;2022-09-21T00:38:54;15.88;;;5.63;;
12412;SDS011;13877;18.896;-99.222;2022-09-21T00:41:24;10.55;;;6.03;;
12412;SDS011;13877;18.896;-99.222;2022-09-21T00:46:50;18.30;;;7.35;;
12412;SDS011;13877;18.896;-99.222;2022-09-21T00:49:21;12.48;;;6.22;;
12412;SDS011;13877;18.896;-99.222;2022-09-21T00:51:49;13.05;;;6.38;;
12412;SDS011;13877;18.896;-99.222;2022-09-21T00:54:28;12.82;;;7.18;;
12412;SDS011;13877;18.896;-99.222;2022-09-21T00:57:01;12.95;;;7.30;;
12412;SDS011;13877;18.896;-99.222;2022-09-21T00:59:31;15.48;;;6.75;;
12412;SDS011;13877;18.896;-99.222;2022-09-21T01:02:01;17.67;;;7.10;;
12412;SDS011;13877;18.896;-99.222;2022-09-21T01:04:29;12.80;;;7.22;;
12412;SDS011;13877;18.896;-99.222;2022-09-21T01:06:57;11.77;;;6.93;;
12412;SDS011;13877;18.896;-99.222;2022-09-21T01:09:26;14.13;;;7.78;;
12412;SDS011;13877;18.896;-99.222;2022-09-21T01:23:06;11.85;;;6.97;;
12412;SDS011;13877;18.896;-99.222;2022-09-21T01:29:09;13.10;;;5.80;;
12412;SDS011;13877;18.896;-99.222;2022-09-21T01:34:38;15.80;;;6.85;;
12412;SDS011;13877;18.896;-99.222;2022-09-21T01:37:12;11.43;;;6.53;;
12412;SDS011;13877;18.896;-99.222;2022-09-21T01:39:45;13.55;;;6.22;;
12412;SDS011;13877;18.896;-99.222;2022-09-21T01:42:16;19.38;;;6.25;;
12412;SDS011;13877;18.896;-99.222;2022-09-21T01:44:44;17.95;;;6.97;;
12412;SDS011;13877;18.896;-99.222;2022-09-21T01:47:12;12.80;;;6.95;;
12412;SDS011;13877;18.896;-99.222;2022-09-21T01:49:45;14.68;;;7.07;;
12412;SDS011;13877;18.896;-99.222;2022-09-21T01:52:39;14.23;;;6.82;;
12412;SDS011;13877;18.896;-99.222;2022-09-21T01:55:19;10.15;;;6.75;;
12412;SDS011;13877;18.896;-99.222;2022-09-21T01:57:55;12.20;;;6.55;;
12412;SDS011;13877;18.896;-99.222;2022-09-21T02:00:39;10.02;;;6.88;;
12412;SDS011;13877;18.896;-99.222;2022-09-21T02:03:26;8.57;;;6.32;;
12412;SDS011;13877;18.896;-99.222;2022-09-21T02:06:01;18.07;;;7.90;;
12412;SDS011;13877;18.896;-99.222;2022-09-21T02:08:30;21.35;;;9.13;;
12412;SDS011;13877;18.896;-99.222;2022-09-21T02:10:58;25.70;;;8.77;;
12412;SDS011;13877;18.896;-99.222;2022-09-21T02:13:31;17.73;;;9.50;;
12412;SDS011;13877;18.896;-99.222;2022-09-21T02:24:08;24.23;;;10.13;;
12412;SDS011;13877;18.896;-99.222;2022-09-21T02:26:42;30.17;;;9.20;;
12412;SDS011;13877;18.896;-99.222;2022-09-21T02:34:33;26.67;;;10.27;;
12412;SDS011;13877;18.896;-99.222;2022-09-21T02:42:55;19.77;;;10.80;;
12412;SDS011;13877;18.896;-99.222;2022-09-21T02:45:29;18.00;;;11.13;;
12412;SDS011;13877;18.896;-99.222;2022-09-21T02:48:07;24.38;;;10.95;;
12412;SDS011;13877;18.896;-99.222;2022-09-21T02:50:43;26.05;;;11.10;;
12412;SDS011;13877;18.896;-99.222;2022-09-21T02:53:12;24.95;;;10.15;;
12412;SDS011;13877;18.896;-99.222;2022-09-21T02:55:43;25.30;;;9.82;;
12412;SDS011;13877;18.896;-99.222;2022-09-21T02:58:12;22.38;;;10.05;;
12412;SDS011;13877;18.896;-99.222;2022-09-21T03:00:42;22.52;;;10.80;;
12412;SDS011;13877;18.896;-99.222;2022-09-21T03:03:18;29.20;;;10.95;;
12412;SDS011;13877;18.896;-99.222;2022-09-21T03:05:49;23.85;;;10.63;;
12412;SDS011;13877;18.896;-99.222;2022-09-21T03:08:17;19.73;;;10.30;;
12412;SDS011;13877;18.896;-99.222;2022-09-21T03:10:45;24.08;;;10.10;;
12412;SDS011;13877;18.896;-99.222;2022-09-21T03:13:15;28.05;;;11.65;;
12412;SDS011;13877;18.896;-99.222;2022-09-21T03:15:43;23.30;;;11.07;;
12412;SDS011;13877;18.896;-99.222;2022-09-21T03:18:11;23.65;;;10.68;;
12412;SDS011;13877;18.896;-99.222;2022-09-21T03:20:39;17.08;;;9.90;;
12412;SDS011;13877;18.896;-99.222;2022-09-21T03:23:11;22.48;;;10.23;;
12412;SDS011;13877;18.896;-99.222;2022-09-21T03:25:38;22.38;;;10.05;;
12412;SDS011;13877;18.896;-99.222;2022-09-21T03:28:05;31.02;;;11.85;;
12412;SDS011;13877;18.896;-99.222;2022-09-21T03:30:32;25.83;;;11.25;;
12412;SDS011;13877;18.896;-99.222;2022-09-21T03:33:00;30.88;;;12.30;;
12412;SDS011;13877;18.896;-99.222;2022-09-21T03:35:30;17.80;;;10.60;;
12412;SDS011;13877;18.896;-99.222;2022-09-21T03:37:58;20.88;;;10.43;;
12412;SDS011;13877;18.896;-99.222;2022-09-21T03:40:26;25.33;;;10.63;;
12412;SDS011;13877;18.896;-99.222;2022-09-21T03:42:53;27.83;;;11.25;;
12412;SDS011;13877;18.896;-99.222;2022-09-21T03:45:20;27.17;;;9.90;;
12412;SDS011;13877;18.896;-99.222;2022-09-21T03:47:48;20.77;;;10.80;;
12412;SDS011;13877;18.896;-99.222;2022-09-21T03:50:14;22.77;;;10.32;;
12412;SDS011;13877;18.896;-99.222;2022-09-21T03:52:42;26.63;;;10.48;;
12412;SDS011;13877;18.896;-99.222;2022-09-21T03:55:08;27.40;;;11.98;;
12412;SDS011;13877;18.896;-99.222;2022-09-21T03:57:35;27.95;;;10.70;;
12412;SDS011;13877;18.896;-99.222;2022-09-21T04:00:04;22.35;;;10.35;;
12412;SDS011;13877;18.896;-99.222;2022-09-21T04:02:34;25.42;;;9.13;;
12412;SDS011;13877;18.896;-99.222;2022-09-21T04:05:02;19.27;;;9.07;;
12412;SDS011;13877;18.896;-99.222;2022-09-21T04:07:29;15.55;;;9.25;;
12412;SDS011;13877;18.896;-99.222;2022-09-21T04:10:04;21.40;;;9.02;;
12412;SDS011;13877;18.896;-99.222;2022-09-21T04:12:32;21.10;;;9.00;;
12412;SDS011;13877;18.896;-99.222;2022-09-21T04:14:59;25.27;;;9.60;;
12412;SDS011;13877;18.896;-99.222;2022-09-21T04:17:27;24.30;;;8.63;;
12412;SDS011;13877;18.896;-99.222;2022-09-21T04:19:54;18.33;;;8.55;;
12412;SDS011;13877;18.896;-99.222;2022-09-21T04:22:21;26.25;;;8.75;;
12412;SDS011;13877;18.896;-99.222;2022-09-21T04:24:49;18.65;;;8.18;;
12412;SDS011;13877;18.896;-99.222;2022-09-21T04:27:16;17.42;;;9.27;;
12412;SDS011;13877;18.896;-99.222;2022-09-21T04:29:43;17.20;;;8.70;;
12412;SDS011;13877;18.896;-99.222;2022-09-21T04:32:10;23.83;;;10.18;;
12412;SDS011;13877;18.896;-99.222;2022-09-21T04:34:37;17.00;;;8.82;;
12412;SDS011;13877;18.896;-99.222;2022-09-21T04:37:08;17.45;;;8.95;;
12412;SDS011;13877;18.896;-99.222;2022-09-21T04:39:38;22.20;;;9.13;;
12412;SDS011;13877;18.896;-99.222;2022-09-21T04:42:05;23.65;;;9.98;;
12412;SDS011;13877;18.896;-99.222;2022-09-21T04:44:32;18.55;;;9.43;;
12412;SDS011;13877;18.896;-99.222;2022-09-21T04:46:59;23.52;;;9.65;;
12412;SDS011;13877;18.896;-99.222;2022-09-21T04:49:26;20.55;;;9.35;;
12412;SDS011;13877;18.896;-99.222;2022-09-21T04:51:53;24.45;;;9.60;;
12412;SDS011;13877;18.896;-99.222;2022-09-21T04:54:20;18.55;;;8.93;;
12412;SDS011;13877;18.896;-99.222;2022-09-21T04:56:47;19.15;;;9.40;;
12412;SDS011;13877;18.896;-99.222;2022-09-21T04:59:14;21.52;;;9.20;;
12412;SDS011;13877;18.896;-99.222;2022-09-21T05:01:41;25.38;;;11.63;;
12412;SDS011;13877;18.896;-99.222;2022-09-21T05:04:08;16.05;;;9.30;;
12412;SDS011;13877;18.896;-99.222;2022-09-21T05:06:35;15.63;;;8.57;;
12412;SDS011;13877;18.896;-99.222;2022-09-21T05:09:02;14.20;;;8.73;;
12412;SDS011;13877;18.896;-99.222;2022-09-21T05:11:47;24.25;;;9.68;;
12412;SDS011;13877;18.896;-99.222;2022-09-21T05:14:14;18.90;;;9.13;;
12412;SDS011;13877;18.896;-99.222;2022-09-21T05:16:41;20.10;;;8.95;;
12412;SDS011;13877;18.896;-99.222;2022-09-21T05:19:08;20.90;;;9.23;;
12412;SDS011;13877;18.896;-99.222;2022-09-21T05:21:36;17.05;;;9.68;;
12412;SDS011;13877;18.896;-99.222;2022-09-21T05:24:02;20.02;;;9.40;;
12412;SDS011;13877;18.896;-99.222;2022-09-21T05:26:29;17.85;;;10.20;;
12412;SDS011;13877;18.896;-99.222;2022-09-21T05:28:56;18.92;;;9.93;;
12412;SDS011;13877;18.896;-99.222;2022-09-21T05:34:44;13.90;;;7.95;;
12412;SDS011;13877;18.896;-99.222;2022-09-21T05:40:07;15.48;;;8.77;;
12412;SDS011;13877;18.896;-99.222;2022-09-21T05:42:37;16.15;;;8.40;;
12412;SDS011;13877;18.896;-99.222;2022-09-21T05:45:04;18.63;;;9.63;;
12412;SDS011;13877;18.896;-99.222;2022-09-21T05:47:38;16.30;;;9.95;;
12412;SDS011;13877;18.896;-99.222;2022-09-21T05:52:55;16.52;;;9.93;;
12412;SDS011;13877;18.896;-99.222;2022-09-21T05:58:28;19.38;;;10.15;;
12412;SDS011;13877;18.896;-99.222;2022-09-21T06:04:09;16.38;;;10.57;;
12412;SDS011;13877;18.896;-99.222;2022-09-21T06:06:39;17.57;;;10.87;;
12412;SDS011;13877;18.896;-99.222;2022-09-21T06:09:06;23.17;;;11.55;;
12412;SDS011;13877;18.896;-99.222;2022-09-21T06:11:33;19.70;;;10.93;;
12412;SDS011;13877;18.896;-99.222;2022-09-21T06:14:00;21.27;;;10.15;;
12412;SDS011;13877;18.896;-99.222;2022-09-21T06:16:37;18.07;;;10.90;;
12412;SDS011;13877;18.896;-99.222;2022-09-21T06:19:05;23.10;;;10.98;;
12412;SDS011;13877;18.896;-99.222;2022-09-21T06:21:36;19.40;;;9.80;;
12412;SDS011;13877;18.896;-99.222;2022-09-21T06:24:02;20.90;;;10.63;;
12412;SDS011;13877;18.896;-99.222;2022-09-21T06:26:29;18.60;;;9.48;;
12412;SDS011;13877;18.896;-99.222;2022-09-21T06:28:56;17.00;;;8.80;;
12412;SDS011;13877;18.896;-99.222;2022-09-21T06:31:24;18.15;;;9.50;;
12412;SDS011;13877;18.896;-99.222;2022-09-21T06:33:52;17.45;;;8.52;;
12412;SDS011;13877;18.896;-99.222;2022-09-21T06:36:19;22.05;;;8.40;;
12412;SDS011;13877;18.896;-99.222;2022-09-21T06:38:45;17.48;;;8.30;;
12412;SDS011;13877;18.896;-99.222;2022-09-21T06:41:12;19.48;;;8.65;;
12412;SDS011;13877;18.896;-99.222;2022-09-21T06:43:39;12.52;;;8.27;;
12412;SDS011;13877;18.896;-99.222;2022-09-21T06:46:06;14.27;;;7.68;;
12412;SDS011;13877;18.896;-99.222;2022-09-21T06:48:33;13.93;;;7.13;;
12412;SDS011;13877;18.896;-99.222;2022-09-21T06:51:02;21.15;;;7.18;;
12412;SDS011;13877;18.896;-99.222;2022-09-21T06:53:30;14.63;;;5.78;;
12412;SDS011;13877;18.896;-99.222;2022-09-21T06:56:02;10.68;;;6.15;;
12412;SDS011;13877;18.896;-99.222;2022-09-21T06:58:34;11.75;;;6.35;;
12412;SDS011;13877;18.896;-99.222;2022-09-21T07:01:09;11.30;;;5.10;;
12412;SDS011;13877;18.896;-99.222;2022-09-21T07:03:38;8.27;;;4.85;;
12412;SDS011;13877;18.896;-99.222;2022-09-21T07:06:06;9.52;;;4.75;;
12412;SDS011;13877;18.896;-99.222;2022-09-21T07:08:34;8.02;;;4.40;;
12412;SDS011;13877;18.896;-99.222;2022-09-21T07:11:01;11.05;;;5.03;;
12412;SDS011;13877;18.896;-99.222;2022-09-21T07:13:29;8.27;;;4.38;;
12412;SDS011;13877;18.896;-99.222;2022-09-21T07:15:55;13.57;;;4.80;;
12412;SDS011;13877;18.896;-99.222;2022-09-21T07:18:23;8.13;;;4.53;;
12412;SDS011;13877;18.896;-99.222;2022-09-21T07:20:50;9.68;;;4.50;;
12412;SDS011;13877;18.896;-99.222;2022-09-21T07:23:17;11.50;;;4.32;;
12412;SDS011;13877;18.896;-99.222;2022-09-21T07:25:45;12.00;;;4.50;;
12412;SDS011;13877;18.896;-99.222;2022-09-21T07:28:15;9.23;;;4.30;;
12412;SDS011;13877;18.896;-99.222;2022-09-21T07:30:42;14.98;;;3.67;;
12412;SDS011;13877;18.896;-99.222;2022-09-21T07:33:09;10.10;;;3.75;;
12412;SDS011;13877;18.896;-99.222;2022-09-21T07:35:36;7.85;;;4.13;;
12412;SDS011;13877;18.896;-99.222;2022-09-21T07:38:04;9.90;;;3.95;;
12412;SDS011;13877;18.896;-99.222;2022-09-21T07:40:32;5.75;;;3.55;;
12412;SDS011;13877;18.896;-99.222;2022-09-21T07:43:00;5.63;;;3.33;;
12412;SDS011;13877;18.896;-99.222;2022-09-21T07:45:27;10.45;;;4.07;;
12412;SDS011;13877;18.896;-99.222;2022-09-21T07:48:03;8.43;;;3.78;;
12412;SDS011;13877;18.896;-99.222;2022-09-21T07:50:31;7.80;;;3.63;;
12412;SDS011;13877;18.896;-99.222;2022-09-21T07:52:59;9.32;;;3.70;;
12412;SDS011;13877;18.896;-99.222;2022-09-21T07:55:27;7.35;;;4.05;;
12412;SDS011;13877;18.896;-99.222;2022-09-21T07:57:54;8.25;;;3.42;;
12412;SDS011;13877;18.896;-99.222;2022-09-21T08:00:39;5.57;;;3.47;;
12412;SDS011;13877;18.896;-99.222;2022-09-21T08:03:06;4.72;;;3.35;;
12412;SDS011;13877;18.896;-99.222;2022-09-21T08:05:33;6.53;;;4.00;;
12412;SDS011;13877;18.896;-99.222;2022-09-21T08:08:00;8.25;;;4.20;;
12412;SDS011;13877;18.896;-99.222;2022-09-21T08:10:27;5.43;;;3.50;;
12412;SDS011;13877;18.896;-99.222;2022-09-21T08:12:55;8.18;;;4.18;;
12412;SDS011;13877;18.896;-99.222;2022-09-21T08:15:22;8.23;;;4.43;;
12412;SDS011;13877;18.896;-99.222;2022-09-21T08:17:49;8.15;;;4.20;;
12412;SDS011;13877;18.896;-99.222;2022-09-21T08:20:16;6.00;;;3.30;;
12412;SDS011;13877;18.896;-99.222;2022-09-21T08:22:43;13.10;;;3.25;;
12412;SDS011;13877;18.896;-99.222;2022-09-21T08:25:10;8.23;;;3.42;;
12412;SDS011;13877;18.896;-99.222;2022-09-21T08:27:37;10.23;;;3.53;;
12412;SDS011;13877;18.896;-99.222;2022-09-21T08:30:05;8.45;;;3.83;;
12412;SDS011;13877;18.896;-99.222;2022-09-21T08:32:33;4.45;;;3.00;;
12412;SDS011;13877;18.896;-99.222;2022-09-21T08:35:00;10.75;;;3.60;;
12412;SDS011;13877;18.896;-99.222;2022-09-21T08:37:26;4.50;;;3.50;;
12412;SDS011;13877;18.896;-99.222;2022-09-21T08:39:54;7.95;;;3.55;;
12412;SDS011;13877;18.896;-99.222;2022-09-21T08:45:04;10.23;;;3.28;;
12412;SDS011;13877;18.896;-99.222;2022-09-21T08:47:49;7.95;;;3.70;;
12412;SDS011;13877;18.896;-99.222;2022-09-21T08:50:25;7.43;;;3.30;;
12412;SDS011;13877;18.896;-99.222;2022-09-21T08:53:06;9.45;;;3.70;;
12412;SDS011;13877;18.896;-99.222;2022-09-21T08:55:39;11.70;;;4.03;;
12412;SDS011;13877;18.896;-99.222;2022-09-21T08:58:14;5.30;;;3.25;;
12412;SDS011;13877;18.896;-99.222;2022-09-21T09:00:56;5.13;;;3.40;;
12412;SDS011;13877;18.896;-99.222;2022-09-21T09:06:28;7.20;;;3.42;;
12412;SDS011;13877;18.896;-99.222;2022-09-21T09:22:33;10.93;;;2.55;;
12412;SDS011;13877;18.896;-99.222;2022-09-21T09:25:12;4.30;;;2.42;;
12412;SDS011;13877;18.896;-99.222;2022-09-21T09:27:45;7.78;;;3.00;;
12412;SDS011;13877;18.896;-99.222;2022-09-21T09:30:16;12.20;;;2.60;;
12412;SDS011;13877;18.896;-99.222;2022-09-21T09:32:50;3.72;;;2.33;;
12412;SDS011;13877;18.896;-99.222;2022-09-21T09:41:06;3.67;;;2.17;;
12412;SDS011;13877;18.896;-99.222;2022-09-21T09:44:01;7.03;;;2.58;;
12412;SDS011;13877;18.896;-99.222;2022-09-21T09:49:40;9.32;;;2.33;;
12412;SDS011;13877;18.896;-99.222;2022-09-21T09:52:25;7.45;;;2.28;;
12412;SDS011;13877;18.896;-99.222;2022-09-21T09:54:52;5.90;;;2.22;;
12412;SDS011;13877;18.896;-99.222;2022-09-21T09:57:25;4.25;;;2.25;;
12412;SDS011;13877;18.896;-99.222;2022-09-21T09:59:59;3.83;;;2.42;;
12412;SDS011;13877;18.896;-99.222;2022-09-21T10:02:50;3.45;;;1.88;;
12412;SDS011;13877;18.896;-99.222;2022-09-21T10:05:23;3.28;;;2.03;;
12412;SDS011;13877;18.896;-99.222;2022-09-21T10:08:01;5.00;;;1.90;;
12412;SDS011;13877;18.896;-99.222;2022-09-21T10:10:29;5.20;;;2.25;;
12412;SDS011;13877;18.896;-99.222;2022-09-21T10:15:48;4.68;;;2.00;;
12412;SDS011;13877;18.896;-99.222;2022-09-21T10:18:43;4.82;;;2.10;;
12412;SDS011;13877;18.896;-99.222;2022-09-21T10:21:35;4.90;;;2.13;;
12412;SDS011;13877;18.896;-99.222;2022-09-21T10:24:28;3.22;;;2.08;;
12412;SDS011;13877;18.896;-99.222;2022-09-21T10:27:05;2.78;;;1.83;;
12412;SDS011;13877;18.896;-99.222;2022-09-21T10:29:44;4.80;;;2.15;;
12412;SDS011;13877;18.896;-99.222;2022-09-21T10:37:29;3.13;;;2.10;;
12412;SDS011;13877;18.896;-99.222;2022-09-21T10:40:02;3.22;;;2.28;;
12412;SDS011;13877;18.896;-99.222;2022-09-21T10:42:34;5.70;;;2.22;;
12412;SDS011;13877;18.896;-99.222;2022-09-21T10:45:14;6.13;;;2.22;;
12412;SDS011;13877;18.896;-99.222;2022-09-21T10:47:47;6.70;;;2.45;;
12412;SDS011;13877;18.896;-99.222;2022-09-21T10:50:23;3.03;;;2.20;;
12412;SDS011;13877;18.896;-99.222;2022-09-21T10:58:10;5.70;;;2.42;;
12412;SDS011;13877;18.896;-99.222;2022-09-21T11:00:45;3.05;;;2.20;;
12412;SDS011;13877;18.896;-99.222;2022-09-21T11:03:27;3.08;;;2.05;;
12412;SDS011;13877;18.896;-99.222;2022-09-21T11:06:06;5.10;;;2.28;;
12412;SDS011;13877;18.896;-99.222;2022-09-21T11:09:02;4.85;;;2.30;;
12412;SDS011;13877;18.896;-99.222;2022-09-21T11:12:01;3.38;;;2.20;;
12412;SDS011;13877;18.896;-99.222;2022-09-21T11:14:52;5.43;;;2.40;;
12412;SDS011;13877;18.896;-99.222;2022-09-21T11:20:23;7.30;;;2.60;;
12412;SDS011;13877;18.896;-99.222;2022-09-21T11:31:04;5.68;;;2.50;;
12412;SDS011;13877;18.896;-99.222;2022-09-21T11:36:45;4.55;;;2.70;;
12412;SDS011;13877;18.896;-99.222;2022-09-21T11:44:58;10.02;;;3.05;;
12412;SDS011;13877;18.896;-99.222;2022-09-21T11:47:41;6.53;;;3.00;;
12412;SDS011;13877;18.896;-99.222;2022-09-21T11:56:24;9.88;;;2.97;;
12412;SDS011;13877;18.896;-99.222;2022-09-21T11:59:04;4.82;;;3.10;;
12412;SDS011;13877;18.896;-99.222;2022-09-21T12:04:33;7.10;;;2.85;;
12412;SDS011;13877;18.896;-99.222;2022-09-21T12:15:22;11.13;;;2.80;;
12412;SDS011;13877;18.896;-99.222;2022-09-21T12:18:02;9.10;;;2.83;;
12412;SDS011;13877;18.896;-99.222;2022-09-21T12:20:37;6.78;;;3.38;;
12412;SDS011;13877;18.896;-99.222;2022-09-21T12:23:37;16.38;;;3.17;;
12412;SDS011;13877;18.896;-99.222;2022-09-21T12:26:05;6.13;;;2.80;;
12412;SDS011;13877;18.896;-99.222;2022-09-21T12:28:34;5.57;;;3.28;;
12412;SDS011;13877;18.896;-99.222;2022-09-21T12:31:17;7.47;;;2.92;;
12412;SDS011;13877;18.896;-99.222;2022-09-21T12:33:47;10.93;;;2.55;;
12412;SDS011;13877;18.896;-99.222;2022-09-21T12:36:39;8.23;;;2.70;;
12412;SDS011;13877;18.896;-99.222;2022-09-21T12:42:04;11.25;;;3.17;;
12412;SDS011;13877;18.896;-99.222;2022-09-21T12:44:47;6.57;;;2.92;;
12412;SDS011;13877;18.896;-99.222;2022-09-21T12:50:14;9.65;;;2.53;;
12412;SDS011;13877;18.896;-99.222;2022-09-21T12:52:49;9.75;;;3.08;;
12412;SDS011;13877;18.896;-99.222;2022-09-21T13:00:33;8.43;;;2.85;;
12412;SDS011;13877;18.896;-99.222;2022-09-21T13:03:10;8.35;;;2.85;;
12412;SDS011;13877;18.896;-99.222;2022-09-21T13:08:43;6.53;;;3.10;;
12412;SDS011;13877;18.896;-99.222;2022-09-21T13:11:12;13.68;;;3.13;;
12412;SDS011;13877;18.896;-99.222;2022-09-21T13:13:47;9.27;;;3.10;;
12412;SDS011;13877;18.896;-99.222;2022-09-21T13:19:25;5.70;;;2.70;;
12412;SDS011;13877;18.896;-99.222;2022-09-21T13:22:10;6.70;;;3.17;;
12412;SDS011;13877;18.896;-99.222;2022-09-21T13:24:46;7.28;;;3.53;;
12412;SDS011;13877;18.896;-99.222;2022-09-21T13:28:07;7.05;;;2.60;;
12412;SDS011;13877;18.896;-99.222;2022-09-21T13:30:39;3.80;;;2.00;;
12412;SDS011;13877;18.896;-99.222;2022-09-21T13:41:03;6.40;;;2.20;;
12412;SDS011;13877;18.896;-99.222;2022-09-21T13:52:00;3.70;;;2.20;;
12412;SDS011;13877;18.896;-99.222;2022-09-21T13:54:30;8.43;;;1.80;;
12412;SDS011;13877;18.896;-99.222;2022-09-21T14:02:43;9.60;;;2.42;;
12412;SDS011;13877;18.896;-99.222;2022-09-21T14:08:04;6.28;;;3.05;;
12412;SDS011;13877;18.896;-99.222;2022-09-21T14:11:28;6.38;;;2.50;;
12412;SDS011;13877;18.896;-99.222;2022-09-21T14:24:36;5.70;;;2.45;;
12412;SDS011;13877;18.896;-99.222;2022-09-21T14:32:34;5.35;;;2.15;;
12412;SDS011;13877;18.896;-99.222;2022-09-21T14:35:12;3.22;;;1.83;;
12412;SDS011;13877;18.896;-99.222;2022-09-21T14:37:49;7.50;;;1.50;;
12412;SDS011;13877;18.896;-99.222;2022-09-21T14:40:36;3.38;;;2.00;;
12412;SDS011;13877;18.896;-99.222;2022-09-21T14:43:07;7.95;;;2.00;;
12412;SDS011;13877;18.896;-99.222;2022-09-21T14:48:36;2.78;;;1.70;;
12412;SDS011;13877;18.896;-99.222;2022-09-21T14:51:11;4.35;;;2.05;;
12412;SDS011;13877;18.896;-99.222;2022-09-21T14:56:50;9.50;;;1.95;;
12412;SDS011;13877;18.896;-99.222;2022-09-21T15:02:24;5.90;;;2.10;;
12412;SDS011;13877;18.896;-99.222;2022-09-21T15:08:21;9.07;;;2.40;;
12412;SDS011;13877;18.896;-99.222;2022-09-21T15:11:14;3.13;;;2.33;;
12412;SDS011;13877;18.896;-99.222;2022-09-21T15:16:44;6.32;;;2.50;;
12412;SDS011;13877;18.896;-99.222;2022-09-21T15:19:25;5.22;;;3.35;;
12412;SDS011;13877;18.896;-99.222;2022-09-21T15:21:54;9.93;;;3.83;;
12412;SDS011;13877;18.896;-99.222;2022-09-21T15:24:35;5.43;;;3.05;;
12412;SDS011;13877;18.896;-99.222;2022-09-21T15:27:06;9.23;;;3.50;;
12412;SDS011;13877;18.896;-99.222;2022-09-21T15:29:42;11.65;;;3.92;;
12412;SDS011;13877;18.896;-99.222;2022-09-21T15:35:11;12.15;;;4.10;;
12412;SDS011;13877;18.896;-99.222;2022-09-21T15:37:49;12.48;;;4.30;;
12412;SDS011;13877;18.896;-99.222;2022-09-21T15:48:26;9.77;;;4.78;;
12412;SDS011;13877;18.896;-99.222;2022-09-21T15:51:01;10.05;;;4.97;;
12412;SDS011;13877;18.896;-99.222;2022-09-21T15:53:33;8.17;;;4.63;;
12412;SDS011;13877;18.896;-99.222;2022-09-21T15:56:05;8.50;;;5.28;;
12412;SDS011;13877;18.896;-99.222;2022-09-21T15:58:42;9.45;;;5.22;;
12412;SDS011;13877;18.896;-99.222;2022-09-21T16:01:11;11.25;;;4.95;;
12412;SDS011;13877;18.896;-99.222;2022-09-21T16:03:41;14.73;;;5.85;;
12412;SDS011;13877;18.896;-99.222;2022-09-21T16:08:47;8.88;;;5.38;;
12412;SDS011;13877;18.896;-99.222;2022-09-21T16:17:05;12.65;;;5.70;;
12412;SDS011;13877;18.896;-99.222;2022-09-21T16:25:13;18.17;;;5.97;;
12412;SDS011;13877;18.896;-99.222;2022-09-21T16:28:02;11.52;;;5.75;;
12412;SDS011;13877;18.896;-99.222;2022-09-21T16:30:38;15.48;;;7.68;;
12412;SDS011;13877;18.896;-99.222;2022-09-21T16:38:51;14.10;;;7.03;;
12412;SDS011;13877;18.896;-99.222;2022-09-21T16:41:18;15.98;;;5.70;;
12412;SDS011;13877;18.896;-99.222;2022-09-21T16:43:54;11.50;;;4.22;;
12412;SDS011;13877;18.896;-99.222;2022-09-21T16:46:21;9.35;;;4.95;;
12412;SDS011;13877;18.896;-99.222;2022-09-21T16:48:52;8.45;;;5.03;;
12412;SDS011;13877;18.896;-99.222;2022-09-21T16:51:20;12.95;;;5.25;;
12412;SDS011;13877;18.896;-99.222;2022-09-21T16:53:50;7.88;;;4.50;;
12412;SDS011;13877;18.896;-99.222;2022-09-21T16:56:17;6.53;;;3.97;;
12412;SDS011;13877;18.896;-99.222;2022-09-21T16:58:45;8.27;;;4.10;;
12412;SDS011;13877;18.896;-99.222;2022-09-21T17:01:13;6.43;;;3.92;;
12412;SDS011;13877;18.896;-99.222;2022-09-21T17:06:17;7.53;;;3.17;;
12412;SDS011;13877;18.896;-99.222;2022-09-21T17:08:46;10.10;;;3.80;;
12412;SDS011;13877;18.896;-99.222;2022-09-21T17:11:17;7.30;;;3.47;;
12412;SDS011;13877;18.896;-99.222;2022-09-21T17:13:45;7.85;;;3.85;;
12412;SDS011;13877;18.896;-99.222;2022-09-21T17:16:13;5.60;;;3.45;;
12412;SDS011;13877;18.896;-99.222;2022-09-21T17:21:11;6.80;;;3.10;;
12412;SDS011;13877;18.896;-99.222;2022-09-21T17:23:39;6.50;;;3.13;;
12412;SDS011;13877;18.896;-99.222;2022-09-21T17:26:13;7.30;;;3.17;;
12412;SDS011;13877;18.896;-99.222;2022-09-21T17:28:46;9.82;;;3.10;;
12412;SDS011;13877;18.896;-99.222;2022-09-21T17:31:13;10.20;;;3.53;;
12412;SDS011;13877;18.896;-99.222;2022-09-21T17:33:41;10.80;;;3.08;;
12412;SDS011;13877;18.896;-99.222;2022-09-21T17:36:12;4.40;;;2.70;;
12412;SDS011;13877;18.896;-99.222;2022-09-21T17:38:39;4.95;;;3.22;;
12412;SDS011;13877;18.896;-99.222;2022-09-21T17:41:49;5.00;;;3.03;;
12412;SDS011;13877;18.896;-99.222;2022-09-21T17:46:42;6.95;;;2.92;;
12412;SDS011;13877;18.896;-99.222;2022-09-21T17:49:35;6.30;;;2.92;;
12412;SDS011;13877;18.896;-99.222;2022-09-21T17:52:02;11.50;;;3.40;;
12412;SDS011;13877;18.896;-99.222;2022-09-21T17:54:47;10.00;;;2.75;;
12412;SDS011;13877;18.896;-99.222;2022-09-21T18:00:13;6.10;;;3.63;;
12412;SDS011;13877;18.896;-99.222;2022-09-21T18:02:47;8.65;;;3.92;;
12412;SDS011;13877;18.896;-99.222;2022-09-21T18:07:55;9.85;;;4.20;;
12412;SDS011;13877;18.896;-99.222;2022-09-21T18:10:22;9.55;;;3.95;;
12412;SDS011;13877;18.896;-99.222;2022-09-21T18:12:57;9.80;;;4.57;;
12412;SDS011;13877;18.896;-99.222;2022-09-21T18:18:37;7.55;;;4.78;;
12412;SDS011;13877;18.896;-99.222;2022-09-21T18:21:12;12.32;;;4.90;;
12412;SDS011;13877;18.896;-99.222;2022-09-21T18:26:46;6.68;;;4.25;;
12412;SDS011;13877;18.896;-99.222;2022-09-21T18:29:23;10.57;;;5.90;;
12412;SDS011;13877;18.896;-99.222;2022-09-21T18:34:45;11.75;;;5.93;;
12412;SDS011;13877;18.896;-99.222;2022-09-21T18:45:38;10.43;;;5.03;;
12412;SDS011;13877;18.896;-99.222;2022-09-21T18:48:24;16.63;;;5.13;;
12412;SDS011;13877;18.896;-99.222;2022-09-21T18:54:00;10.35;;;5.78;;
12412;SDS011;13877;18.896;-99.222;2022-09-21T18:56:32;13.10;;;6.47;;
12412;SDS011;13877;18.896;-99.222;2022-09-21T18:59:02;11.10;;;5.20;;
12412;SDS011;13877;18.896;-99.222;2022-09-21T19:01:32;11.77;;;5.95;;
12412;SDS011;13877;18.896;-99.222;2022-09-21T19:03:59;10.60;;;5.10;;
12412;SDS011;13877;18.896;-99.222;2022-09-21T19:12:12;9.45;;;4.80;;
12412;SDS011;13877;18.896;-99.222;2022-09-21T19:25:49;12.23;;;3.88;;
12412;SDS011;13877;18.896;-99.222;2022-09-21T19:31:11;7.00;;;4.85;;
12412;SDS011;13877;18.896;-99.222;2022-09-21T19:33:46;9.63;;;5.00;;
12412;SDS011;13877;18.896;-99.222;2022-09-21T19:36:13;8.98;;;4.07;;